createdAt,value
2018-04-15T00:01:03.224Z,13.70
2018-04-15T00:03:34.336Z,13.70
2018-04-15T00:06:02.678Z,13.60
2018-04-15T00:08:32.991Z,13.60
2018-04-15T00:11:01.465Z,13.60
2018-04-15T00:13:29.149Z,13.60
2018-04-15T00:15:56.861Z,13.50
2018-04-15T00:18:24.568Z,13.50
2018-04-15T00:20:52.178Z,13.50
2018-04-15T00:23:20.591Z,13.50
2018-04-15T00:25:48.247Z,13.40
2018-04-15T00:28:16.698Z,13.40
2018-04-15T00:30:44.288Z,13.30
2018-04-15T00:33:11.921Z,13.30
2018-04-15T00:35:39.527Z,13.30
2018-04-15T00:38:07.917Z,13.30
2018-04-15T00:40:36.389Z,13.30
2018-04-15T00:43:04.010Z,13.10
2018-04-15T00:45:31.629Z,13.30
2018-04-15T00:47:59.225Z,13.30
2018-04-15T00:50:27.696Z,13.20
2018-04-15T00:52:55.339Z,13.20
2018-04-15T00:55:24.440Z,13.10
2018-04-15T00:57:52.004Z,13.10
2018-04-15T01:00:19.610Z,13.10
2018-04-15T01:02:47.572Z,13.20
2018-04-15T01:05:15.194Z,13.20
2018-04-15T01:07:42.818Z,13.10
2018-04-15T01:10:10.427Z,13.10
2018-04-15T01:12:38.107Z,13.00
2018-04-15T01:15:05.729Z,13.00
2018-04-15T01:17:34.402Z,12.90
2018-04-15T01:20:02.070Z,12.90
2018-04-15T01:22:29.738Z,12.90
2018-04-15T01:24:57.352Z,12.90
2018-04-15T01:27:24.996Z,13.00
2018-04-15T01:29:53.415Z,12.90
2018-04-15T01:32:21.813Z,13.00
2018-04-15T01:34:49.435Z,12.90
2018-04-15T01:37:17.084Z,13.00
2018-04-15T01:39:45.458Z,13.00
2018-04-15T01:42:13.834Z,13.00
2018-04-15T01:44:41.431Z,13.00
2018-04-15T01:47:09.881Z,13.00
2018-04-15T01:49:37.634Z,13.00
2018-04-15T01:52:05.254Z,13.00
2018-04-15T01:54:32.900Z,13.00
2018-04-15T01:57:00.524Z,13.00
2018-04-15T01:59:28.159Z,12.90
2018-04-15T02:01:55.782Z,12.90
2018-04-15T02:04:23.479Z,12.90
2018-04-15T02:06:51.181Z,12.90
2018-04-15T02:09:18.788Z,12.90
2018-04-15T02:11:47.141Z,12.90
2018-04-15T02:14:14.797Z,12.80
2018-04-15T02:16:42.510Z,12.90
2018-04-15T02:19:10.609Z,12.90
2018-04-15T02:21:39.200Z,12.90
2018-04-15T02:24:07.642Z,12.90
2018-04-15T02:26:35.252Z,12.90
2018-04-15T02:29:02.898Z,12.90
2018-04-15T02:31:30.661Z,12.90
2018-04-15T02:33:58.304Z,12.90
2018-04-15T02:36:26.672Z,12.90
2018-04-15T02:38:54.265Z,12.90
2018-04-15T02:41:21.875Z,12.90
2018-04-15T02:43:50.159Z,12.90
2018-04-15T02:46:17.767Z,12.90
2018-04-15T02:48:45.410Z,12.90
2018-04-15T02:51:13.053Z,12.90
2018-04-15T02:53:41.414Z,13.00
2018-04-15T02:56:08.996Z,12.90
2018-04-15T02:58:36.596Z,12.90
2018-04-15T03:01:04.999Z,12.90
2018-04-15T03:03:32.590Z,12.90
2018-04-15T03:06:00.240Z,13.00
2018-04-15T03:08:28.635Z,12.90
2018-04-15T03:10:56.398Z,12.90
2018-04-15T03:13:24.868Z,12.80
2018-04-15T03:15:52.519Z,12.80
2018-04-15T03:18:20.188Z,12.80
2018-04-15T03:20:47.816Z,12.80
2018-04-15T03:23:16.172Z,12.70
2018-04-15T03:25:43.741Z,12.70
2018-04-15T03:28:11.357Z,12.70
2018-04-15T03:30:39.955Z,12.70
2018-04-15T03:33:07.665Z,12.60
2018-04-15T03:35:36.202Z,12.60
2018-04-15T03:38:03.811Z,12.50
2018-04-15T03:40:31.422Z,12.50
2018-04-15T03:42:59.143Z,12.40
2018-04-15T03:45:27.524Z,12.40
2018-04-15T03:47:55.917Z,12.30
2018-04-15T03:50:24.370Z,12.30
2018-04-15T03:52:52.064Z,12.20
2018-04-15T03:55:19.686Z,12.10
2018-04-15T03:57:47.296Z,12.10
2018-04-15T04:00:14.951Z,12.10
2018-04-15T04:02:42.534Z,12.00
2018-04-15T04:05:10.124Z,12.00
2018-04-15T04:07:37.755Z,12.00
2018-04-15T04:10:05.412Z,12.00
2018-04-15T04:12:33.026Z,11.90
2018-04-15T04:15:01.265Z,11.90
2018-04-15T04:17:41.004Z,11.90
2018-04-15T04:20:20.441Z,11.90
2018-04-15T04:22:59.952Z,11.80
2018-04-15T04:25:39.356Z,11.80
2018-04-15T04:28:06.955Z,11.80
2018-04-15T04:30:35.399Z,11.80
2018-04-15T04:33:03.033Z,11.70
2018-04-15T04:35:31.090Z,11.80
2018-04-15T04:37:58.854Z,11.80
2018-04-15T04:40:27.267Z,11.90
2018-04-15T04:42:54.937Z,11.90
2018-04-15T04:45:23.502Z,12.00
2018-04-15T04:47:51.187Z,12.00
2018-04-15T04:50:19.598Z,12.00
2018-04-15T04:52:47.989Z,12.10
2018-04-15T04:55:16.414Z,12.00
2018-04-15T04:57:44.050Z,12.00
2018-04-15T05:00:11.758Z,12.00
2018-04-15T05:02:39.434Z,12.00
2018-04-15T05:05:07.104Z,12.00
2018-04-15T05:07:35.429Z,12.00
2018-04-15T05:10:03.224Z,11.90
2018-04-15T05:12:30.959Z,11.80
2018-04-15T05:14:58.653Z,11.80
2018-04-15T05:17:26.994Z,11.70
2018-04-15T05:19:54.743Z,11.60
2018-04-15T05:22:22.358Z,11.60
2018-04-15T05:24:51.455Z,11.50
2018-04-15T05:27:19.072Z,11.50
2018-04-15T05:29:46.840Z,11.50
2018-04-15T05:32:14.490Z,11.40
2018-04-15T05:34:42.198Z,11.40
2018-04-15T05:37:10.834Z,11.40
2018-04-15T05:39:40.000Z,11.40
2018-04-15T05:42:07.611Z,11.30
2018-04-15T05:44:36.581Z,11.40
2018-04-15T05:47:04.210Z,11.30
2018-04-15T05:49:31.848Z,11.40
2018-04-15T05:51:59.521Z,11.40
2018-04-15T05:54:27.710Z,11.40
2018-04-15T05:56:55.367Z,11.40
2018-04-15T05:59:23.422Z,11.40
2018-04-15T06:01:51.019Z,11.50
2018-04-15T06:04:18.725Z,11.50
2018-04-15T06:06:46.337Z,11.50
2018-04-15T06:09:13.941Z,11.50
2018-04-15T06:11:41.532Z,11.50
2018-04-15T06:14:09.162Z,11.50
2018-04-15T06:16:36.933Z,11.60
2018-04-15T06:19:04.521Z,11.50
2018-04-15T06:21:32.237Z,11.50
2018-04-15T06:23:59.980Z,11.50
2018-04-15T06:26:27.657Z,11.50
2018-04-15T06:28:56.071Z,11.60
2018-04-15T06:31:23.821Z,11.60
2018-04-15T06:33:52.120Z,11.60
2018-04-15T06:36:19.780Z,11.60
2018-04-15T06:38:47.522Z,11.70
2018-04-15T06:41:15.218Z,11.70
2018-04-15T06:43:42.970Z,11.80
2018-04-15T06:46:12.591Z,11.90
2018-04-15T06:48:40.263Z,11.90
2018-04-15T06:51:08.699Z,12.00
2018-04-15T06:53:36.275Z,11.90
2018-04-15T06:56:03.948Z,12.00
2018-04-15T06:58:31.616Z,12.00
2018-04-15T07:00:59.337Z,12.00
2018-04-15T07:03:27.796Z,12.00
2018-04-15T07:05:55.407Z,12.00
2018-04-15T07:08:22.994Z,12.00
2018-04-15T07:10:50.581Z,12.10
2018-04-15T07:13:18.231Z,12.00
2018-04-15T07:15:46.748Z,12.00
2018-04-15T07:18:14.338Z,12.10
2018-04-15T07:20:42.026Z,12.10
2018-04-15T07:23:09.616Z,12.20
2018-04-15T07:25:37.542Z,12.20
2018-04-15T07:28:05.853Z,12.30
2018-04-15T07:30:34.095Z,12.30
2018-04-15T07:33:01.859Z,12.30
2018-04-15T07:35:30.286Z,12.40
2018-04-15T07:37:58.914Z,12.40
2018-04-15T07:40:26.510Z,12.40
2018-04-15T07:42:54.185Z,12.50
2018-04-15T07:45:21.852Z,12.60
2018-04-15T07:47:49.484Z,12.60
2018-04-15T07:50:17.084Z,12.70
2018-04-15T07:52:45.122Z,12.70
2018-04-15T07:55:13.489Z,12.90
2018-04-15T07:57:42.080Z,12.80
2018-04-15T08:00:09.690Z,12.90
2018-04-15T08:02:38.184Z,13.00
2018-04-15T08:05:06.583Z,13.00
2018-04-15T08:07:36.574Z,13.00
2018-04-15T08:10:04.267Z,13.10
2018-04-15T08:12:32.977Z,13.10
2018-04-15T08:15:01.382Z,13.10
2018-04-15T08:17:29.070Z,13.10
2018-04-15T08:19:57.190Z,13.10
2018-04-15T08:22:28.139Z,13.10
2018-04-15T08:24:57.058Z,13.10
2018-04-15T08:27:25.367Z,13.10
2018-04-15T08:29:53.891Z,13.10
2018-04-15T08:32:22.543Z,13.00
2018-04-15T08:34:50.269Z,13.10
2018-04-15T08:37:17.953Z,13.10
2018-04-15T08:39:46.602Z,13.10
2018-04-15T08:42:14.277Z,13.10
2018-04-15T08:44:42.754Z,13.10
2018-04-15T08:47:10.436Z,13.10
2018-04-15T08:49:38.754Z,13.20
2018-04-15T08:52:06.816Z,13.20
2018-04-15T08:54:34.498Z,13.20
2018-04-15T08:57:02.895Z,13.30
2018-04-15T08:59:31.320Z,13.40
2018-04-15T09:01:58.980Z,13.30
2018-04-15T09:04:26.583Z,13.40
2018-04-15T09:06:54.186Z,13.50
2018-04-15T09:09:21.818Z,13.50
2018-04-15T09:11:49.613Z,13.60
2018-04-15T09:14:17.266Z,13.60
2018-04-15T09:16:46.622Z,13.60
2018-04-15T09:19:14.476Z,13.70
2018-04-15T09:21:42.113Z,13.70
2018-04-15T09:24:09.773Z,13.70
2018-04-15T09:26:38.828Z,13.70
2018-04-15T09:29:06.486Z,13.70
2018-04-15T09:31:34.077Z,13.80
2018-04-15T09:34:01.721Z,13.80
2018-04-15T09:36:29.938Z,13.90
2018-04-15T09:38:58.304Z,14.10
2018-04-15T09:41:26.026Z,14.10
2018-04-15T09:43:54.386Z,14.30
2018-04-15T09:46:22.280Z,14.40
2018-04-15T09:48:50.203Z,14.40
2018-04-15T09:51:20.129Z,14.50
2018-04-15T09:53:47.902Z,14.50
2018-04-15T09:56:16.390Z,14.60
2018-04-15T09:58:44.211Z,14.60
2018-04-15T10:01:11.817Z,14.70
2018-04-15T10:03:41.412Z,14.80
2018-04-15T10:06:09.779Z,14.90
2018-04-15T10:08:38.636Z,15.00
2018-04-15T10:11:06.266Z,15.00
2018-04-15T10:13:34.014Z,15.10
2018-04-15T10:16:02.487Z,15.30
2018-04-15T10:18:30.109Z,15.20
2018-04-15T10:20:57.725Z,15.40
2018-04-15T10:23:26.707Z,15.50
2018-04-15T10:25:55.290Z,15.40
2018-04-15T10:28:24.421Z,15.60
2018-04-15T10:30:52.759Z,15.60
2018-04-15T10:33:20.387Z,15.70
2018-04-15T10:35:48.003Z,15.90
2018-04-15T10:38:16.107Z,16.00
2018-04-15T10:40:45.276Z,16.20
2018-04-15T10:43:13.542Z,16.30
2018-04-15T10:45:42.019Z,16.70
2018-04-15T10:48:10.488Z,16.60
2018-04-15T10:50:38.325Z,17.00
2018-04-15T10:53:05.985Z,17.10
2018-04-15T10:55:33.668Z,17.40
2018-04-15T10:58:02.138Z,17.70
2018-04-15T11:00:31.499Z,17.60
2018-04-15T11:02:59.273Z,17.80
2018-04-15T11:05:26.923Z,18.00
2018-04-15T11:07:55.217Z,18.10
2018-04-15T11:10:22.920Z,18.40
2018-04-15T11:12:51.446Z,18.80
2018-04-15T11:15:20.483Z,18.90
2018-04-15T11:17:48.177Z,18.90
2018-04-15T11:20:15.790Z,19.00
2018-04-15T11:22:43.456Z,19.10
2018-04-15T11:25:11.244Z,19.00
2018-04-15T11:27:39.187Z,19.00
2018-04-15T11:30:06.881Z,19.00
2018-04-15T11:32:34.527Z,19.10
2018-04-15T11:35:02.194Z,19.20
2018-04-15T11:37:29.833Z,19.10
2018-04-15T11:39:58.033Z,19.10
2018-04-15T11:42:27.173Z,19.20
2018-04-15T11:45:01.255Z,19.10
2018-04-15T11:47:29.902Z,19.10
2018-04-15T11:49:58.385Z,19.00
2018-04-15T11:52:26.674Z,19.00
2018-04-15T11:54:54.287Z,18.60
2018-04-15T11:57:21.964Z,18.70
2018-04-15T11:59:49.561Z,18.80
2018-04-15T12:02:17.462Z,18.70
2018-04-15T12:04:45.146Z,19.00
2018-04-15T12:07:12.772Z,19.20
2018-04-15T12:09:41.132Z,19.10
2018-04-15T12:12:08.738Z,19.10
2018-04-15T12:14:36.335Z,19.00
2018-04-15T12:17:04.535Z,18.80
2018-04-15T12:19:32.286Z,19.10
2018-04-15T12:22:00.142Z,19.10
2018-04-15T12:24:28.856Z,18.90
2018-04-15T12:26:56.521Z,18.80
2018-04-15T12:29:24.194Z,19.00
2018-04-15T12:31:53.363Z,19.20
2018-04-15T12:34:21.504Z,19.20
2018-04-15T12:36:49.221Z,19.40
2018-04-15T12:39:16.840Z,19.50
2018-04-15T12:41:46.176Z,19.60
2018-04-15T12:44:13.875Z,19.60
2018-04-15T12:46:41.488Z,19.60
2018-04-15T12:51:43.143Z,19.90
2018-04-15T12:54:10.714Z,19.80
2018-04-15T12:56:38.658Z,19.70
2018-04-15T12:59:06.280Z,19.60
2018-04-15T13:01:33.930Z,19.50
2018-04-15T13:04:01.910Z,19.50
2018-04-15T13:06:29.673Z,19.50
2018-04-15T13:08:57.265Z,19.50
2018-04-15T13:11:25.910Z,19.40
2018-04-15T13:13:54.283Z,19.50
2018-04-15T13:16:21.886Z,19.50
2018-04-15T13:18:49.658Z,19.50
2018-04-15T13:21:17.312Z,19.50
2018-04-15T13:23:45.351Z,19.60
2018-04-15T13:26:13.025Z,19.60
2018-04-15T13:28:40.609Z,19.60
2018-04-15T13:31:08.582Z,19.60
2018-04-15T13:33:36.357Z,19.50
2018-04-15T13:36:03.961Z,19.50
2018-04-15T13:38:31.546Z,19.50
2018-04-15T13:40:59.230Z,19.50
2018-04-15T13:43:27.318Z,19.50
2018-04-15T13:45:55.710Z,19.50
2018-04-15T13:48:24.152Z,19.50
2018-04-15T13:50:51.777Z,19.50
2018-04-15T13:53:20.175Z,19.50
2018-04-15T13:55:49.066Z,19.50
2018-04-15T13:58:17.453Z,19.50
2018-04-15T14:00:45.035Z,19.50
2018-04-15T14:03:13.520Z,19.60
2018-04-15T14:05:42.044Z,19.50
2018-04-15T14:08:09.676Z,19.70
2018-04-15T14:10:37.394Z,19.80
2018-04-15T14:13:05.040Z,20.00
2018-04-15T14:15:32.662Z,20.10
2018-04-15T14:18:00.338Z,20.30
2018-04-15T14:20:28.286Z,20.30
2018-04-15T14:22:55.935Z,20.20
2018-04-15T14:25:24.433Z,20.10
2018-04-15T14:27:52.301Z,20.00
2018-04-15T14:30:19.890Z,20.00
2018-04-15T14:32:48.312Z,20.00
2018-04-15T14:35:15.908Z,20.00
2018-04-15T14:37:43.568Z,20.00
2018-04-15T14:40:11.169Z,20.00
2018-04-15T14:42:39.580Z,19.90
2018-04-15T14:45:10.871Z,19.90
2018-04-15T14:47:38.700Z,19.90
2018-04-15T14:50:06.419Z,20.00
2018-04-15T14:52:39.461Z,20.50
2018-04-15T14:55:07.500Z,20.40
2018-04-15T14:57:35.536Z,20.60
2018-04-15T15:00:06.187Z,20.60
2018-04-15T15:02:34.795Z,20.60
2018-04-15T15:05:03.257Z,20.60
2018-04-15T15:07:32.686Z,21.10
2018-04-15T15:10:04.118Z,21.10
2018-04-15T15:12:34.505Z,21.60
2018-04-15T15:15:03.017Z,21.80
2018-04-15T15:17:32.440Z,21.70
2018-04-15T15:20:00.337Z,21.70
2018-04-15T15:25:01.439Z,21.30
2018-04-15T15:27:29.387Z,21.20
2018-04-15T15:29:57.131Z,21.20
2018-04-15T15:32:24.738Z,21.10
2018-04-15T15:34:53.389Z,21.20
2018-04-15T15:37:21.150Z,21.40
2018-04-15T15:39:48.769Z,21.50
2018-04-15T15:42:16.443Z,21.70
2018-04-15T15:44:44.067Z,21.80
2018-04-15T15:47:11.747Z,21.70
2018-04-15T15:49:40.185Z,21.30
2018-04-15T15:52:09.518Z,21.20
2018-04-15T15:54:37.258Z,21.10
2018-04-15T15:57:04.848Z,21.00
2018-04-15T15:59:32.558Z,20.90
2018-04-15T16:02:00.973Z,20.90
2018-04-15T16:04:29.427Z,20.50
2018-04-15T16:06:57.084Z,20.50
2018-04-15T16:09:24.711Z,20.60
2018-04-15T16:11:53.144Z,20.80
2018-04-15T16:14:20.843Z,20.80
2018-04-15T16:16:48.463Z,21.00
2018-04-15T16:19:17.490Z,21.20
2018-04-15T16:21:45.634Z,21.20
2018-04-15T16:24:13.264Z,21.20
2018-04-15T16:26:40.910Z,21.30
2018-04-15T16:29:08.749Z,21.40
2018-04-15T16:31:37.024Z,21.50
2018-04-15T16:34:05.309Z,21.60
2018-04-15T16:36:33.244Z,21.60
2018-04-15T16:39:01.049Z,21.60
2018-04-15T16:41:29.632Z,21.60
2018-04-15T16:43:58.050Z,21.60
2018-04-15T16:46:26.515Z,21.50
2018-04-15T16:48:54.210Z,21.40
2018-04-15T16:51:21.822Z,21.30
2018-04-15T16:53:49.552Z,21.30
2018-04-15T16:56:18.224Z,21.30
2018-04-15T16:58:45.939Z,21.30
2018-04-15T17:01:13.756Z,21.40
2018-04-15T17:03:42.019Z,21.40
2018-04-15T17:06:09.734Z,21.40
2018-04-15T17:08:37.541Z,21.50
2018-04-15T17:11:06.086Z,21.50
2018-04-15T17:13:33.760Z,21.50
2018-04-15T17:16:02.250Z,21.40
2018-04-15T17:18:30.233Z,21.40
2018-04-15T17:20:57.827Z,21.30
2018-04-15T17:23:26.310Z,21.20
2018-04-15T17:25:54.011Z,21.10
2018-04-15T17:28:21.673Z,20.80
2018-04-15T17:30:49.306Z,20.70
2018-04-15T17:33:17.702Z,20.30
2018-04-15T17:35:46.073Z,20.20
2018-04-15T17:38:13.686Z,20.20
2018-04-15T17:40:41.411Z,20.00
2018-04-15T17:43:09.067Z,19.90
2018-04-15T17:45:36.697Z,19.80
2018-04-15T17:48:05.748Z,19.70
2018-04-15T17:50:33.399Z,19.60
2018-04-15T17:53:01.089Z,19.60
2018-04-15T17:55:28.710Z,19.50
2018-04-15T17:57:56.427Z,19.30
2018-04-15T18:00:24.110Z,19.20
2018-04-15T18:02:51.729Z,19.00
2018-04-15T18:05:19.445Z,19.00
2018-04-15T18:07:47.388Z,18.90
2018-04-15T18:10:15.065Z,18.80
2018-04-15T18:12:42.810Z,18.60
2018-04-15T18:15:11.011Z,18.60
2018-04-15T18:17:38.775Z,18.50
2018-04-15T18:20:06.379Z,18.40
2018-04-15T18:22:34.898Z,18.20
2018-04-15T18:25:02.536Z,18.10
2018-04-15T18:27:30.364Z,18.10
2018-04-15T18:29:58.264Z,18.00
2018-04-15T18:32:25.851Z,17.90
2018-04-15T18:34:53.783Z,17.70
2018-04-15T18:37:22.134Z,17.60
2018-04-15T18:39:49.729Z,17.50
2018-04-15T18:42:18.132Z,17.40
2018-04-15T18:44:45.792Z,17.30
2018-04-15T18:47:13.358Z,17.40
2018-04-15T18:49:41.004Z,17.30
2018-04-15T18:52:09.409Z,17.20
2018-04-15T18:54:38.041Z,17.10
2018-04-15T18:57:07.264Z,17.20
2018-04-15T18:59:36.318Z,17.10
2018-04-15T19:02:03.994Z,17.10
2018-04-15T19:04:32.765Z,17.10
2018-04-15T19:07:01.397Z,17.00
2018-04-15T19:09:29.782Z,17.00
2018-04-15T19:11:57.494Z,16.90
2018-04-15T19:14:25.940Z,16.90
2018-04-15T19:16:53.549Z,16.80
2018-04-15T19:19:21.901Z,16.90
2018-04-15T19:21:49.565Z,16.80
2018-04-15T19:24:17.267Z,16.70
2018-04-15T19:26:44.941Z,16.70
2018-04-15T19:29:12.542Z,16.70
2018-04-15T19:31:41.006Z,16.70
2018-04-15T19:34:09.421Z,16.70
2018-04-15T19:36:38.369Z,16.70
2018-04-15T19:39:06.169Z,16.70
2018-04-15T19:41:33.898Z,16.70
2018-04-15T19:44:01.550Z,16.70
2018-04-15T19:46:29.142Z,16.70
2018-04-15T19:48:57.538Z,16.70
2018-04-15T19:51:25.276Z,16.60
2018-04-15T19:53:53.947Z,16.70
2018-04-15T19:56:21.593Z,16.60
2018-04-15T19:58:49.949Z,16.60
2018-04-15T20:01:18.294Z,16.50
2018-04-15T20:03:45.959Z,16.60
2018-04-15T20:06:13.576Z,16.50
2018-04-15T20:08:41.215Z,16.50
2018-04-15T20:11:08.881Z,16.50
2018-04-15T20:13:36.466Z,16.50
2018-04-15T20:16:04.175Z,16.50
2018-04-15T20:18:31.777Z,16.50
2018-04-15T20:21:00.257Z,16.40
2018-04-15T20:23:28.021Z,16.40
2018-04-15T20:25:55.988Z,16.40
2018-04-15T20:28:23.733Z,16.40
2018-04-15T20:30:51.653Z,16.30
2018-04-15T20:33:20.182Z,16.30
2018-04-15T20:35:48.870Z,16.30
2018-04-15T20:38:16.527Z,16.20
2018-04-15T20:40:44.172Z,16.20
2018-04-15T20:43:12.668Z,16.20
2018-04-15T20:45:41.478Z,16.10
2018-04-15T20:48:09.233Z,16.10
2018-04-15T20:50:38.254Z,16.00
2018-04-15T20:53:06.847Z,16.00
2018-04-15T20:55:34.552Z,16.00
2018-04-15T20:58:02.242Z,16.00
2018-04-15T21:00:32.020Z,16.00
2018-04-15T21:02:59.655Z,16.00
2018-04-15T21:05:28.270Z,16.00
2018-04-15T21:07:56.363Z,16.00
2018-04-15T21:10:24.839Z,16.00
2018-04-15T21:12:52.487Z,15.90
2018-04-15T21:15:21.821Z,15.90
2018-04-15T21:17:51.805Z,15.90
2018-04-15T21:20:19.971Z,15.90
2018-04-15T21:22:48.620Z,15.90
2018-04-15T21:25:17.756Z,15.90
2018-04-15T21:27:45.411Z,15.80
2018-04-15T21:30:15.300Z,15.80
2018-04-15T21:32:43.115Z,15.80
2018-04-15T21:35:10.772Z,15.80
2018-04-15T21:37:39.376Z,15.70
2018-04-15T21:40:08.422Z,15.70
2018-04-15T21:42:36.056Z,15.60
2018-04-15T21:45:04.497Z,15.60
2018-04-15T21:47:32.085Z,15.60
2018-04-15T21:49:59.700Z,15.60
2018-04-15T21:52:28.081Z,15.60
2018-04-15T21:54:55.767Z,15.60
2018-04-15T21:57:24.175Z,15.60
2018-04-15T21:59:51.785Z,15.50
2018-04-15T22:02:19.413Z,15.60
2018-04-15T22:04:47.780Z,15.50
2018-04-15T22:07:16.198Z,15.40
2018-04-15T22:09:43.789Z,15.40
2018-04-15T22:12:15.227Z,15.40
2018-04-15T22:14:42.911Z,15.30
2018-04-15T22:17:12.102Z,15.10
2018-04-15T22:19:39.900Z,15.10
2018-04-15T22:22:08.300Z,15.00
2018-04-15T22:24:35.878Z,15.00
2018-04-15T22:27:03.588Z,14.90
2018-04-15T22:29:31.298Z,14.90
2018-04-15T22:31:59.728Z,14.90
2018-04-15T22:34:27.303Z,14.90
2018-04-15T22:36:54.975Z,14.90
2018-04-15T22:39:22.616Z,14.90
2018-04-15T22:41:50.980Z,14.80
2018-04-15T22:44:18.545Z,14.80
2018-04-15T22:46:46.726Z,14.80
2018-04-15T22:49:21.676Z,14.70
2018-04-15T22:51:49.283Z,14.70
2018-04-15T22:54:17.634Z,14.50
2018-04-15T22:56:45.800Z,14.50
2018-04-15T22:59:15.903Z,14.10
2018-04-15T23:01:44.307Z,14.10
2018-04-15T23:04:12.568Z,14.10
2018-04-15T23:06:41.809Z,14.20
2018-04-15T23:09:09.944Z,14.30
2018-04-15T23:11:38.657Z,14.30
2018-04-15T23:14:06.249Z,14.30
2018-04-15T23:16:34.715Z,14.30
2018-04-15T23:19:02.282Z,14.30
2018-04-15T23:21:30.021Z,14.30
2018-04-15T23:23:58.431Z,14.30
2018-04-15T23:26:26.015Z,14.30
2018-04-15T23:28:53.675Z,14.40
2018-04-15T23:31:21.369Z,14.30
2018-04-15T23:33:49.029Z,14.40
2018-04-15T23:36:16.641Z,14.20
2018-04-15T23:38:44.975Z,13.90
2018-04-15T23:41:12.588Z,13.90
2018-04-15T23:43:40.974Z,13.80
2018-04-15T23:46:08.608Z,13.80
2018-04-15T23:48:36.262Z,13.80
2018-04-15T23:51:03.883Z,13.90
2018-04-15T23:53:31.505Z,13.90
2018-04-15T23:55:59.101Z,13.90
2018-04-15T23:58:26.715Z,13.90
